sensor_id;sensor_type;location;lat;lon;timestamp;pressure;altitude;pressure_sealevel;temperature;humidity
57050;BME280;42935;50.966;16.992;2023-04-29T00:00:47;101129.30;;;10.49;92.91
57050;BME280;42935;50.966;16.992;2023-04-29T00:04:05;101121.71;;;10.46;93.60
57050;BME280;42935;50.966;16.992;2023-04-29T00:07:21;101112.47;;;10.44;93.14
57050;BME280;42935;50.966;16.992;2023-04-29T00:10:40;101119.84;;;10.44;92.24
57050;BME280;42935;50.966;16.992;2023-04-29T00:14:04;101113.50;;;10.47;91.41
57050;BME280;42935;50.966;16.992;2023-04-29T00:17:24;101109.27;;;10.47;91.13
57050;BME280;42935;50.966;16.992;2023-04-29T00:20:48;101112.09;;;10.24;94.18
57050;BME280;42935;50.966;16.992;2023-04-29T00:24:14;101116.89;;;10.36;94.26
57050;BME280;42935;50.966;16.992;2023-04-29T00:27:34;101105.33;;;10.23;95.55
57050;BME280;42935;50.966;16.992;2023-04-29T00:30:52;101110.81;;;10.23;96.43
57050;BME280;42935;50.966;16.992;2023-04-29T00:34:15;101109.95;;;10.25;95.90
57050;BME280;42935;50.966;16.992;2023-04-29T00:37:38;101104.19;;;10.17;96.79
57050;BME280;42935;50.966;16.992;2023-04-29T00:40:58;101099.22;;;10.13;96.32
57050;BME280;42935;50.966;16.992;2023-04-29T00:44:16;101080.54;;;10.12;94.36
57050;BME280;42935;50.966;16.992;2023-04-29T00:47:35;101081.41;;;10.18;94.29
57050;BME280;42935;50.966;16.992;2023-04-29T00:50:58;101085.23;;;10.25;93.51
57050;BME280;42935;50.966;16.992;2023-04-29T00:54:22;101082.94;;;10.28;93.48
57050;BME280;42935;50.966;16.992;2023-04-29T00:57:40;101048.76;;;9.99;94.32
57050;BME280;42935;50.966;16.992;2023-04-29T01:01:05;101088.88;;;10.16;95.96
57050;BME280;42935;50.966;16.992;2023-04-29T01:04:21;101084.83;;;10.26;95.28
57050;BME280;42935;50.966;16.992;2023-04-29T01:07:50;101085.48;;;10.16;96.56
57050;BME280;42935;50.966;16.992;2023-04-29T01:11:18;101076.59;;;9.96;98.14
57050;BME280;42935;50.966;16.992;2023-04-29T01:18:28;101073.62;;;10.12;96.13
57050;BME280;42935;50.966;16.992;2023-04-29T01:21:46;101082.86;;;10.09;96.42
57050;BME280;42935;50.966;16.992;2023-04-29T01:25:06;101080.27;;;9.85;97.93
57050;BME280;42935;50.966;16.992;2023-04-29T01:28:39;101080.33;;;9.88;97.01
57050;BME280;42935;50.966;16.992;2023-04-29T01:32:05;101082.66;;;9.85;97.13
57050;BME280;42935;50.966;16.992;2023-04-29T01:42:28;101088.10;;;10.04;95.93
57050;BME280;42935;50.966;16.992;2023-04-29T01:45:49;101082.17;;;10.09;96.09
57050;BME280;42935;50.966;16.992;2023-04-29T01:49:15;101090.41;;;10.06;96.63
57050;BME280;42935;50.966;16.992;2023-04-29T01:52:34;101087.16;;;10.15;97.17
57050;BME280;42935;50.966;16.992;2023-04-29T01:56:05;101078.91;;;9.73;100.00
57050;BME280;42935;50.966;16.992;2023-04-29T01:59:21;101076.64;;;9.78;100.00
57050;BME280;42935;50.966;16.992;2023-04-29T02:02:41;101077.56;;;9.61;100.00
57050;BME280;42935;50.966;16.992;2023-04-29T02:06:05;101086.55;;;9.60;100.00
57050;BME280;42935;50.966;16.992;2023-04-29T02:09:28;101087.06;;;9.47;100.00
57050;BME280;42935;50.966;16.992;2023-04-29T02:12:45;101073.10;;;9.23;100.00
57050;BME280;42935;50.966;16.992;2023-04-29T02:16:07;101080.84;;;9.39;100.00
57050;BME280;42935;50.966;16.992;2023-04-29T02:19:28;101078.26;;;9.17;100.00
57050;BME280;42935;50.966;16.992;2023-04-29T02:22:48;101074.21;;;9.26;100.00
57050;BME280;42935;50.966;16.992;2023-04-29T02:26:17;101070.94;;;9.30;100.00
57050;BME280;42935;50.966;16.992;2023-04-29T02:29:35;101072.85;;;9.28;100.00
57050;BME280;42935;50.966;16.992;2023-04-29T02:32:50;101068.34;;;9.23;100.00
57050;BME280;42935;50.966;16.992;2023-04-29T02:36:20;101068.73;;;9.22;100.00
57050;BME280;42935;50.966;16.992;2023-04-29T02:39:42;101067.44;;;9.28;100.00
57050;BME280;42935;50.966;16.992;2023-04-29T02:43:02;101065.88;;;9.21;100.00
57050;BME280;42935;50.966;16.992;2023-04-29T02:46:27;101067.33;;;9.23;100.00
57050;BME280;42935;50.966;16.992;2023-04-29T02:49:51;101058.13;;;9.25;100.00
57050;BME280;42935;50.966;16.992;2023-04-29T02:53:12;101067.91;;;9.21;100.00
57050;BME280;42935;50.966;16.992;2023-04-29T02:56:30;101063.91;;;9.27;100.00
57050;BME280;42935;50.966;16.992;2023-04-29T02:59:54;101055.48;;;9.12;100.00
57050;BME280;42935;50.966;16.992;2023-04-29T03:03:15;101059.84;;;9.18;100.00
57050;BME280;42935;50.966;16.992;2023-04-29T03:06:35;101041.48;;;8.90;100.00
57050;BME280;42935;50.966;16.992;2023-04-29T03:09:57;101042.02;;;8.90;100.00
57050;BME280;42935;50.966;16.992;2023-04-29T03:13:15;101037.96;;;8.91;100.00
57050;BME280;42935;50.966;16.992;2023-04-29T03:16:37;101042.02;;;8.96;100.00
57050;BME280;42935;50.966;16.992;2023-04-29T03:19:56;101028.99;;;8.75;100.00
57050;BME280;42935;50.966;16.992;2023-04-29T03:23:13;101041.96;;;8.88;100.00
57050;BME280;42935;50.966;16.992;2023-04-29T03:26:29;101037.10;;;8.87;100.00
57050;BME280;42935;50.966;16.992;2023-04-29T03:29:49;101031.85;;;8.86;100.00
57050;BME280;42935;50.966;16.992;2023-04-29T03:33:08;101033.63;;;9.01;100.00
57050;BME280;42935;50.966;16.992;2023-04-29T03:36:28;101031.66;;;8.64;100.00
57050;BME280;42935;50.966;16.992;2023-04-29T03:39:51;101025.08;;;8.55;100.00
57050;BME280;42935;50.966;16.992;2023-04-29T03:43:15;101035.30;;;8.42;100.00
57050;BME280;42935;50.966;16.992;2023-04-29T03:46:34;101030.48;;;8.58;100.00
57050;BME280;42935;50.966;16.992;2023-04-29T03:50:29;101039.40;;;8.70;100.00
57050;BME280;42935;50.966;16.992;2023-04-29T03:53:54;101034.88;;;8.92;100.00
57050;BME280;42935;50.966;16.992;2023-04-29T03:57:20;101020.21;;;8.60;100.00
57050;BME280;42935;50.966;16.992;2023-04-29T04:00:45;101026.39;;;8.66;100.00
57050;BME280;42935;50.966;16.992;2023-04-29T04:04:34;101025.43;;;8.66;100.00
57050;BME280;42935;50.966;16.992;2023-04-29T04:07:54;101037.48;;;8.72;100.00
57050;BME280;42935;50.966;16.992;2023-04-29T04:11:13;101051.73;;;8.92;100.00
57050;BME280;42935;50.966;16.992;2023-04-29T04:14:32;101048.00;;;9.09;100.00
57050;BME280;42935;50.966;16.992;2023-04-29T04:17:55;101050.71;;;9.28;100.00
57050;BME280;42935;50.966;16.992;2023-04-29T04:21:12;101049.95;;;9.24;100.00
57050;BME280;42935;50.966;16.992;2023-04-29T04:24:32;101051.35;;;9.33;100.00
57050;BME280;42935;50.966;16.992;2023-04-29T04:27:52;101037.97;;;9.41;100.00
57050;BME280;42935;50.966;16.992;2023-04-29T04:31:10;101040.02;;;9.61;100.00
57050;BME280;42935;50.966;16.992;2023-04-29T04:34:36;101032.95;;;9.78;100.00
57050;BME280;42935;50.966;16.992;2023-04-29T04:38:00;101029.86;;;9.95;100.00
57050;BME280;42935;50.966;16.992;2023-04-29T04:41:16;101030.84;;;9.90;100.00
57050;BME280;42935;50.966;16.992;2023-04-29T04:44:36;101025.59;;;9.92;100.00
57050;BME280;42935;50.966;16.992;2023-04-29T04:47:54;101020.05;;;10.09;100.00
57050;BME280;42935;50.966;16.992;2023-04-29T04:51:13;101020.77;;;10.16;100.00
57050;BME280;42935;50.966;16.992;2023-04-29T04:54:34;100980.90;;;10.06;100.00
57050;BME280;42935;50.966;16.992;2023-04-29T04:57:59;101018.62;;;10.39;100.00
57050;BME280;42935;50.966;16.992;2023-04-29T05:01:25;101017.72;;;10.52;100.00
57050;BME280;42935;50.966;16.992;2023-04-29T05:04:43;101013.21;;;10.57;100.00
57050;BME280;42935;50.966;16.992;2023-04-29T05:08:04;101015.32;;;10.63;100.00
57050;BME280;42935;50.966;16.992;2023-04-29T05:11:21;100999.70;;;10.67;100.00
57050;BME280;42935;50.966;16.992;2023-04-29T05:14:38;101015.05;;;10.76;100.00
57050;BME280;42935;50.966;16.992;2023-04-29T05:18:01;101012.99;;;10.83;100.00
57050;BME280;42935;50.966;16.992;2023-04-29T05:21:21;101016.40;;;11.04;100.00
57050;BME280;42935;50.966;16.992;2023-04-29T05:24:45;101016.76;;;11.12;100.00
57050;BME280;42935;50.966;16.992;2023-04-29T05:28:06;101018.79;;;11.26;100.00
57050;BME280;42935;50.966;16.992;2023-04-29T05:31:31;101021.38;;;11.47;100.00
57050;BME280;42935;50.966;16.992;2023-04-29T05:34:48;101020.56;;;11.61;100.00
57050;BME280;42935;50.966;16.992;2023-04-29T05:38:12;101023.85;;;11.93;100.00
57050;BME280;42935;50.966;16.992;2023-04-29T05:41:31;101021.27;;;12.13;100.00
57050;BME280;42935;50.966;16.992;2023-04-29T05:44:46;101023.91;;;12.20;100.00
57050;BME280;42935;50.966;16.992;2023-04-29T05:48:06;101027.23;;;12.21;100.00
57050;BME280;42935;50.966;16.992;2023-04-29T05:51:34;101023.17;;;12.24;100.00
57050;BME280;42935;50.966;16.992;2023-04-29T05:54:57;101032.24;;;12.43;100.00
57050;BME280;42935;50.966;16.992;2023-04-29T05:58:48;101037.55;;;12.88;100.00
57050;BME280;42935;50.966;16.992;2023-04-29T06:02:13;101041.51;;;13.05;100.00
57050;BME280;42935;50.966;16.992;2023-04-29T06:05:37;101035.39;;;13.09;100.00
57050;BME280;42935;50.966;16.992;2023-04-29T06:08:59;101045.95;;;13.18;98.69
57050;BME280;42935;50.966;16.992;2023-04-29T06:12:17;101042.59;;;13.32;92.31
57050;BME280;42935;50.966;16.992;2023-04-29T06:15:33;101038.14;;;13.35;91.37
57050;BME280;42935;50.966;16.992;2023-04-29T06:18:53;101045.15;;;13.06;91.75
57050;BME280;42935;50.966;16.992;2023-04-29T06:22:10;101052.16;;;12.92;97.94
57050;BME280;42935;50.966;16.992;2023-04-29T06:25:30;101061.01;;;12.69;95.95
57050;BME280;42935;50.966;16.992;2023-04-29T06:28:54;101065.88;;;12.47;98.06
57050;BME280;42935;50.966;16.992;2023-04-29T06:32:14;101072.28;;;12.13;100.00
57050;BME280;42935;50.966;16.992;2023-04-29T06:35:29;101073.75;;;12.03;100.00
57050;BME280;42935;50.966;16.992;2023-04-29T06:38:53;101064.88;;;12.07;100.00
57050;BME280;42935;50.966;16.992;2023-04-29T06:42:21;101074.24;;;11.82;100.00
57050;BME280;42935;50.966;16.992;2023-04-29T06:45:38;101064.11;;;11.82;100.00
57050;BME280;42935;50.966;16.992;2023-04-29T06:48:58;101072.07;;;11.91;100.00
57050;BME280;42935;50.966;16.992;2023-04-29T06:52:18;101063.19;;;11.89;100.00
57050;BME280;42935;50.966;16.992;2023-04-29T06:55:36;101067.26;;;11.96;100.00
57050;BME280;42935;50.966;16.992;2023-04-29T06:58:56;101071.62;;;12.00;100.00
57050;BME280;42935;50.966;16.992;2023-04-29T07:02:20;101073.93;;;12.12;100.00
57050;BME280;42935;50.966;16.992;2023-04-29T07:06:14;101069.85;;;12.05;100.00
57050;BME280;42935;50.966;16.992;2023-04-29T07:09:30;101072.90;;;11.91;100.00
57050;BME280;42935;50.966;16.992;2023-04-29T07:12:55;101063.61;;;11.60;100.00
57050;BME280;42935;50.966;16.992;2023-04-29T07:16:16;101070.75;;;11.41;100.00
57050;BME280;42935;50.966;16.992;2023-04-29T07:19:43;101068.67;;;11.26;100.00
57050;BME280;42935;50.966;16.992;2023-04-29T07:23:00;101068.63;;;11.29;100.00
57050;BME280;42935;50.966;16.992;2023-04-29T07:26:25;101059.12;;;11.10;100.00
57050;BME280;42935;50.966;16.992;2023-04-29T07:29:42;101063.78;;;11.28;100.00
57050;BME280;42935;50.966;16.992;2023-04-29T07:33:03;101064.63;;;11.16;100.00
57050;BME280;42935;50.966;16.992;2023-04-29T07:36:24;101065.27;;;11.25;100.00
57050;BME280;42935;50.966;16.992;2023-04-29T07:39:47;101057.97;;;11.25;100.00
57050;BME280;42935;50.966;16.992;2023-04-29T07:43:06;101063.05;;;11.38;100.00
57050;BME280;42935;50.966;16.992;2023-04-29T07:46:56;101071.35;;;11.71;100.00
57050;BME280;42935;50.966;16.992;2023-04-29T07:50:16;101074.67;;;11.83;100.00
57050;BME280;42935;50.966;16.992;2023-04-29T07:53:33;101066.85;;;12.14;100.00
57050;BME280;42935;50.966;16.992;2023-04-29T07:57:23;101081.00;;;12.18;100.00
57050;BME280;42935;50.966;16.992;2023-04-29T08:00:43;101075.69;;;12.40;100.00
57050;BME280;42935;50.966;16.992;2023-04-29T08:03:59;101079.47;;;12.73;100.00
57050;BME280;42935;50.966;16.992;2023-04-29T08:07:19;101078.49;;;12.93;100.00
57050;BME280;42935;50.966;16.992;2023-04-29T08:10:39;101081.27;;;12.86;100.00
57050;BME280;42935;50.966;16.992;2023-04-29T08:13:59;101082.51;;;12.90;100.00
57050;BME280;42935;50.966;16.992;2023-04-29T08:17:23;101084.05;;;13.09;100.00
57050;BME280;42935;50.966;16.992;2023-04-29T08:20:42;101090.03;;;13.20;100.00
57050;BME280;42935;50.966;16.992;2023-04-29T08:24:02;101093.53;;;13.15;100.00
57050;BME280;42935;50.966;16.992;2023-04-29T08:27:26;101101.13;;;13.06;100.00
57050;BME280;42935;50.966;16.992;2023-04-29T08:30:45;101091.23;;;12.98;100.00
57050;BME280;42935;50.966;16.992;2023-04-29T08:34:09;101102.85;;;13.18;100.00
57050;BME280;42935;50.966;16.992;2023-04-29T08:37:35;101104.17;;;13.04;100.00
57050;BME280;42935;50.966;16.992;2023-04-29T08:40:56;101094.07;;;13.22;100.00
57050;BME280;42935;50.966;16.992;2023-04-29T08:44:11;101105.02;;;13.11;100.00
57050;BME280;42935;50.966;16.992;2023-04-29T08:47:39;101101.25;;;13.31;100.00
57050;BME280;42935;50.966;16.992;2023-04-29T08:50:57;101103.23;;;13.48;100.00
57050;BME280;42935;50.966;16.992;2023-04-29T08:54:48;101104.18;;;13.47;100.00
57050;BME280;42935;50.966;16.992;2023-04-29T08:58:40;101105.67;;;13.69;100.00
57050;BME280;42935;50.966;16.992;2023-04-29T09:01:59;101110.67;;;13.55;100.00
57050;BME280;42935;50.966;16.992;2023-04-29T09:05:23;101115.22;;;13.54;100.00
57050;BME280;42935;50.966;16.992;2023-04-29T09:09:15;101112.95;;;13.63;100.00
57050;BME280;42935;50.966;16.992;2023-04-29T09:12:35;101122.02;;;13.33;100.00
57050;BME280;42935;50.966;16.992;2023-04-29T09:15:53;101124.78;;;13.60;100.00
57050;BME280;42935;50.966;16.992;2023-04-29T09:22:49;101122.75;;;13.33;100.00
57050;BME280;42935;50.966;16.992;2023-04-29T09:26:09;101120.70;;;13.52;100.00
57050;BME280;42935;50.966;16.992;2023-04-29T09:29:32;101113.00;;;13.80;100.00
57050;BME280;42935;50.966;16.992;2023-04-29T09:33:30;101119.73;;;13.87;100.00
57050;BME280;42935;50.966;16.992;2023-04-29T09:36:51;101109.24;;;14.32;100.00
57050;BME280;42935;50.966;16.992;2023-04-29T09:43:42;101117.76;;;14.73;100.00
57050;BME280;42935;50.966;16.992;2023-04-29T09:47:01;101118.91;;;15.03;100.00
57050;BME280;42935;50.966;16.992;2023-04-29T09:50:28;101112.44;;;14.85;100.00
57050;BME280;42935;50.966;16.992;2023-04-29T09:54:37;101122.40;;;14.98;100.00
57050;BME280;42935;50.966;16.992;2023-04-29T09:59:51;101125.95;;;15.02;98.56
57050;BME280;42935;50.966;16.992;2023-04-29T10:08:38;101115.72;;;15.70;95.08
57050;BME280;42935;50.966;16.992;2023-04-29T10:12:30;101115.51;;;16.16;91.94
57050;BME280;42935;50.966;16.992;2023-04-29T10:16:28;101114.74;;;16.20;93.45
57050;BME280;42935;50.966;16.992;2023-04-29T10:20:27;101110.10;;;15.76;92.75
57050;BME280;42935;50.966;16.992;2023-04-29T10:24:18;101113.87;;;15.35;93.38
57050;BME280;42935;50.966;16.992;2023-04-29T10:27:36;101105.34;;;15.70;90.84
57050;BME280;42935;50.966;16.992;2023-04-29T10:30:59;101107.26;;;15.79;89.54
57050;BME280;42935;50.966;16.992;2023-04-29T10:34:17;101110.38;;;15.84;86.42
57050;BME280;42935;50.966;16.992;2023-04-29T10:37:37;101104.79;;;16.97;86.50
57050;BME280;42935;50.966;16.992;2023-04-29T10:40:57;101096.59;;;17.50;79.87
57050;BME280;42935;50.966;16.992;2023-04-29T10:48:55;101101.67;;;15.72;98.30
57050;BME280;42935;50.966;16.992;2023-04-29T10:52:51;101102.02;;;15.89;88.79
57050;BME280;42935;50.966;16.992;2023-04-29T10:56:10;101100.73;;;15.86;89.98
57050;BME280;42935;50.966;16.992;2023-04-29T11:03:00;101093.45;;;16.31;86.86
57050;BME280;42935;50.966;16.992;2023-04-29T11:06:18;101091.80;;;16.44;84.08
57050;BME280;42935;50.966;16.992;2023-04-29T11:10:06;101097.03;;;16.69;84.02
57050;BME280;42935;50.966;16.992;2023-04-29T11:13:27;101093.15;;;16.98;81.02
57050;BME280;42935;50.966;16.992;2023-04-29T11:16:50;101092.95;;;17.13;86.84
57050;BME280;42935;50.966;16.992;2023-04-29T11:20:14;101084.64;;;17.61;81.78
57050;BME280;42935;50.966;16.992;2023-04-29T11:23:36;101088.91;;;17.04;87.88
57050;BME280;42935;50.966;16.992;2023-04-29T11:26:59;101091.95;;;16.73;86.58
57050;BME280;42935;50.966;16.992;2023-04-29T11:30:24;101090.64;;;16.53;88.86
57050;BME280;42935;50.966;16.992;2023-04-29T11:33:39;101089.84;;;16.69;88.10
57050;BME280;42935;50.966;16.992;2023-04-29T11:37:26;101097.34;;;15.80;87.62
57050;BME280;42935;50.966;16.992;2023-04-29T11:40:49;101098.78;;;16.63;84.48
57050;BME280;42935;50.966;16.992;2023-04-29T11:44:11;101106.43;;;16.33;84.77
57050;BME280;42935;50.966;16.992;2023-04-29T11:47:28;101104.95;;;16.14;91.48
57050;BME280;42935;50.966;16.992;2023-04-29T11:50:47;101114.27;;;15.26;100.00
57050;BME280;42935;50.966;16.992;2023-04-29T11:54:12;101115.16;;;15.08;100.00
57050;BME280;42935;50.966;16.992;2023-04-29T11:57:33;101101.73;;;15.10;100.00
57050;BME280;42935;50.966;16.992;2023-04-29T12:00:50;101104.79;;;15.12;100.00
57050;BME280;42935;50.966;16.992;2023-04-29T12:04:46;101105.27;;;15.52;100.00
57050;BME280;42935;50.966;16.992;2023-04-29T12:08:06;101108.45;;;15.41;100.00
57050;BME280;42935;50.966;16.992;2023-04-29T12:11:54;101102.97;;;15.41;100.00
57050;BME280;42935;50.966;16.992;2023-04-29T12:15:49;101102.00;;;15.36;100.00
57050;BME280;42935;50.966;16.992;2023-04-29T12:19:18;101104.95;;;15.83;97.07
57050;BME280;42935;50.966;16.992;2023-04-29T12:22:38;101100.19;;;15.76;97.54
57050;BME280;42935;50.966;16.992;2023-04-29T12:26:01;101088.24;;;16.70;99.09
57050;BME280;42935;50.966;16.992;2023-04-29T12:29:22;101088.19;;;17.35;88.38
57050;BME280;42935;50.966;16.992;2023-04-29T12:33:22;101085.73;;;18.32;83.04
57050;BME280;42935;50.966;16.992;2023-04-29T12:36:43;101073.29;;;18.78;83.27
57050;BME280;42935;50.966;16.992;2023-04-29T12:39:59;101080.48;;;18.28;75.84
57050;BME280;42935;50.966;16.992;2023-04-29T12:43:30;101082.34;;;18.12;80.09
57050;BME280;42935;50.966;16.992;2023-04-29T12:46:53;101073.41;;;17.96;83.42
57050;BME280;42935;50.966;16.992;2023-04-29T12:50:13;101072.92;;;18.56;83.29
57050;BME280;42935;50.966;16.992;2023-04-29T12:54:03;101070.73;;;17.96;77.73
57050;BME280;42935;50.966;16.992;2023-04-29T12:57:27;101065.55;;;17.87;77.77
57050;BME280;42935;50.966;16.992;2023-04-29T13:00:47;101068.31;;;18.33;82.12
57050;BME280;42935;50.966;16.992;2023-04-29T13:04:06;101071.73;;;18.65;75.92
57050;BME280;42935;50.966;16.992;2023-04-29T13:07:37;101069.14;;;19.39;70.37
57050;BME280;42935;50.966;16.992;2023-04-29T13:10:57;101068.74;;;18.03;71.16
57050;BME280;42935;50.966;16.992;2023-04-29T13:14:13;101071.99;;;18.01;73.95
57050;BME280;42935;50.966;16.992;2023-04-29T13:17:34;101022.42;;;17.79;72.14
57050;BME280;42935;50.966;16.992;2023-04-29T13:20:54;101034.40;;;17.69;73.48
57050;BME280;42935;50.966;16.992;2023-04-29T13:24:11;101064.63;;;17.61;75.83
57050;BME280;42935;50.966;16.992;2023-04-29T13:27:35;101061.60;;;18.59;69.07
57050;BME280;42935;50.966;16.992;2023-04-29T13:30:50;101047.21;;;18.93;68.64
57050;BME280;42935;50.966;16.992;2023-04-29T13:34:08;101055.58;;;17.56;70.71
57050;BME280;42935;50.966;16.992;2023-04-29T13:37:28;101071.95;;;17.26;77.10
57050;BME280;42935;50.966;16.992;2023-04-29T13:41:17;101044.73;;;16.44;81.74
57050;BME280;42935;50.966;16.992;2023-04-29T13:44:33;101065.32;;;16.97;83.03
57050;BME280;42935;50.966;16.992;2023-04-29T13:47:51;101067.48;;;17.41;81.08
57050;BME280;42935;50.966;16.992;2023-04-29T13:51:06;101065.73;;;17.88;81.42
57050;BME280;42935;50.966;16.992;2023-04-29T13:54:57;101063.48;;;18.05;77.02
57050;BME280;42935;50.966;16.992;2023-04-29T13:58:12;101063.60;;;17.31;80.37
57050;BME280;42935;50.966;16.992;2023-04-29T14:01:39;101064.71;;;17.57;78.96
57050;BME280;42935;50.966;16.992;2023-04-29T14:04:55;101053.59;;;17.23;80.92
57050;BME280;42935;50.966;16.992;2023-04-29T14:08:21;101063.52;;;17.37;83.61
57050;BME280;42935;50.966;16.992;2023-04-29T14:11:39;101058.80;;;17.61;78.71
57050;BME280;42935;50.966;16.992;2023-04-29T14:14:59;101068.50;;;17.09;78.19
57050;BME280;42935;50.966;16.992;2023-04-29T14:18:16;101079.91;;;16.95;76.76
57050;BME280;42935;50.966;16.992;2023-04-29T14:21:31;101085.55;;;16.52;79.30
57050;BME280;42935;50.966;16.992;2023-04-29T14:25:22;101083.91;;;16.01;82.97
57050;BME280;42935;50.966;16.992;2023-04-29T14:28:41;101085.35;;;16.10;83.33
57050;BME280;42935;50.966;16.992;2023-04-29T14:32:00;101092.62;;;16.15;84.34
57050;BME280;42935;50.966;16.992;2023-04-29T14:35:16;101095.94;;;15.88;92.50
57050;BME280;42935;50.966;16.992;2023-04-29T14:38:37;101098.20;;;15.63;99.91
57050;BME280;42935;50.966;16.992;2023-04-29T14:42:24;101093.84;;;14.97;100.00
57050;BME280;42935;50.966;16.992;2023-04-29T14:45:44;101095.31;;;14.77;100.00
57050;BME280;42935;50.966;16.992;2023-04-29T14:49:02;101112.26;;;14.48;100.00
57050;BME280;42935;50.966;16.992;2023-04-29T14:52:20;101113.16;;;14.05;100.00
57050;BME280;42935;50.966;16.992;2023-04-29T14:56:15;101104.00;;;14.06;100.00
57050;BME280;42935;50.966;16.992;2023-04-29T14:59:34;101115.03;;;13.99;100.00
57050;BME280;42935;50.966;16.992;2023-04-29T15:03:25;101124.31;;;13.84;100.00
57050;BME280;42935;50.966;16.992;2023-04-29T15:06:45;101139.29;;;13.78;100.00
57050;BME280;42935;50.966;16.992;2023-04-29T15:10:34;101158.50;;;13.44;100.00
57050;BME280;42935;50.966;16.992;2023-04-29T15:13:53;101160.42;;;13.40;100.00
57050;BME280;42935;50.966;16.992;2023-04-29T15:17:09;101175.91;;;12.85;100.00
57050;BME280;42935;50.966;16.992;2023-04-29T15:20:43;101172.64;;;12.75;100.00
57050;BME280;42935;50.966;16.992;2023-04-29T15:24:00;101172.59;;;12.75;100.00
57050;BME280;42935;50.966;16.992;2023-04-29T15:27:24;101158.86;;;12.73;100.00
57050;BME280;42935;50.966;16.992;2023-04-29T15:31:15;101173.53;;;13.20;100.00
57050;BME280;42935;50.966;16.992;2023-04-29T15:34:29;101167.57;;;13.65;100.00
57050;BME280;42935;50.966;16.992;2023-04-29T15:37:49;101166.27;;;14.89;100.00
57050;BME280;42935;50.966;16.992;2023-04-29T15:41:06;101160.43;;;14.62;100.00
57050;BME280;42935;50.966;16.992;2023-04-29T15:44:24;101182.40;;;13.95;100.00
57050;BME280;42935;50.966;16.992;2023-04-29T15:47:45;101185.96;;;14.20;100.00
57050;BME280;42935;50.966;16.992;2023-04-29T15:51:00;101175.42;;;14.38;100.00
57050;BME280;42935;50.966;16.992;2023-04-29T15:54:50;101193.82;;;13.96;100.00
57050;BME280;42935;50.966;16.992;2023-04-29T15:58:10;101196.90;;;13.90;100.00
57050;BME280;42935;50.966;16.992;2023-04-29T16:01:25;101193.34;;;13.94;100.00
57050;BME280;42935;50.966;16.992;2023-04-29T16:04:46;101205.52;;;13.58;100.00
57050;BME280;42935;50.966;16.992;2023-04-29T16:08:04;101207.18;;;13.43;100.00
57050;BME280;42935;50.966;16.992;2023-04-29T16:11:52;101205.80;;;13.34;100.00
57050;BME280;42935;50.966;16.992;2023-04-29T16:15:11;101216.54;;;13.14;100.00
57050;BME280;42935;50.966;16.992;2023-04-29T16:19:06;101202.77;;;13.17;100.00
57050;BME280;42935;50.966;16.992;2023-04-29T16:22:23;101216.78;;;13.11;100.00
57050;BME280;42935;50.966;16.992;2023-04-29T16:25:51;101215.96;;;12.96;100.00
57050;BME280;42935;50.966;16.992;2023-04-29T16:29:12;101222.86;;;12.78;100.00
57050;BME280;42935;50.966;16.992;2023-04-29T16:32:32;101226.32;;;12.63;100.00
57050;BME280;42935;50.966;16.992;2023-04-29T16:35:58;101222.39;;;12.50;100.00
57050;BME280;42935;50.966;16.992;2023-04-29T16:39:20;101233.50;;;12.50;100.00
57050;BME280;42935;50.966;16.992;2023-04-29T16:42:36;101234.77;;;12.36;100.00
57050;BME280;42935;50.966;16.992;2023-04-29T16:46:29;101236.19;;;12.34;100.00
57050;BME280;42935;50.966;16.992;2023-04-29T16:49:54;101243.05;;;12.39;100.00
57050;BME280;42935;50.966;16.992;2023-04-29T16:53:44;101244.70;;;12.30;100.00
57050;BME280;42935;50.966;16.992;2023-04-29T16:57:04;101242.37;;;12.33;100.00
57050;BME280;42935;50.966;16.992;2023-04-29T17:00:52;101250.34;;;12.28;100.00
57050;BME280;42935;50.966;16.992;2023-04-29T17:04:44;101248.60;;;12.20;100.00
57050;BME280;42935;50.966;16.992;2023-04-29T17:08:34;101254.31;;;12.23;100.00
57050;BME280;42935;50.966;16.992;2023-04-29T17:11:53;101251.13;;;12.15;100.00
57050;BME280;42935;50.966;16.992;2023-04-29T17:15:12;101258.68;;;12.26;100.00
57050;BME280;42935;50.966;16.992;2023-04-29T17:18:31;101243.90;;;12.20;100.00
57050;BME280;42935;50.966;16.992;2023-04-29T17:21:52;101262.21;;;12.23;100.00
57050;BME280;42935;50.966;16.992;2023-04-29T17:25:43;101270.26;;;12.00;100.00
57050;BME280;42935;50.966;16.992;2023-04-29T17:29:30;101283.83;;;11.86;100.00
57050;BME280;42935;50.966;16.992;2023-04-29T17:32:47;101287.05;;;11.72;100.00
57050;BME280;42935;50.966;16.992;2023-04-29T17:36:07;101300.50;;;11.68;100.00
57050;BME280;42935;50.966;16.992;2023-04-29T17:39:56;101315.28;;;11.62;100.00
57050;BME280;42935;50.966;16.992;2023-04-29T17:43:11;101311.92;;;11.53;100.00
57050;BME280;42935;50.966;16.992;2023-04-29T17:46:27;101321.18;;;11.52;100.00
57050;BME280;42935;50.966;16.992;2023-04-29T17:49:47;101319.03;;;11.40;100.00
57050;BME280;42935;50.966;16.992;2023-04-29T17:53:43;101341.34;;;11.30;100.00
57050;BME280;42935;50.966;16.992;2023-04-29T17:57:35;101327.52;;;11.18;100.00
57050;BME280;42935;50.966;16.992;2023-04-29T18:00:58;101336.03;;;11.12;100.00
57050;BME280;42935;50.966;16.992;2023-04-29T18:04:19;101302.02;;;10.87;100.00